createdAt,value
2022-12-25T00:02:00.743Z,38.00
2022-12-25T00:05:03.560Z,37.58
2022-12-25T00:08:06.994Z,36.22
2022-12-25T00:11:13.250Z,37.97
2022-12-25T00:14:15.903Z,35.83
2022-12-25T00:17:18.362Z,39.35
2022-12-25T00:20:20.880Z,37.90
2022-12-25T00:23:23.321Z,37.22
2022-12-25T00:26:26.970Z,40.47
2022-12-25T00:29:29.517Z,36.37
2022-12-25T00:32:32.040Z,47.85
2022-12-25T00:35:34.468Z,42.40
2022-12-25T00:38:38.767Z,37.95
2022-12-25T00:42:00.074Z,39.28
2022-12-25T00:45:02.543Z,44.97
2022-12-25T00:48:05.605Z,38.35
2022-12-25T00:51:11.265Z,43.92
2022-12-25T00:54:13.746Z,31.65
2022-12-25T00:57:16.200Z,26.55
2022-12-25T01:00:19.036Z,23.73
2022-12-25T01:03:22.018Z,26.67
2022-12-25T01:06:25.457Z,28.02
2022-12-25T01:09:59.927Z,27.90
2022-12-25T01:13:02.367Z,29.98
2022-12-25T01:16:11.676Z,31.07
2022-12-25T01:19:14.347Z,35.97
2022-12-25T01:22:16.893Z,30.25
2022-12-25T01:25:19.627Z,35.75
2022-12-25T01:28:22.183Z,34.53
2022-12-25T01:31:25.174Z,29.73
2022-12-25T01:34:27.742Z,30.95
2022-12-25T01:37:30.246Z,29.00
2022-12-25T01:40:34.402Z,25.85
2022-12-25T01:44:06.801Z,24.30
2022-12-25T01:47:09.261Z,21.27
2022-12-25T01:50:11.943Z,22.27
2022-12-25T01:53:14.579Z,20.27
2022-12-25T01:56:17.117Z,19.55
2022-12-25T01:59:22.345Z,13.65
2022-12-25T02:02:25.077Z,19.23
2022-12-25T02:05:32.596Z,19.98
2022-12-25T02:08:35.038Z,21.15
2022-12-25T02:11:56.019Z,20.40
2022-12-25T02:15:06.085Z,17.42
2022-12-25T02:18:18.487Z,18.97
2022-12-25T02:21:53.008Z,19.90
2022-12-25T02:25:22.949Z,22.90
2022-12-25T02:28:34.602Z,21.98
2022-12-25T02:31:49.193Z,22.48
2022-12-25T02:34:59.604Z,22.10
2022-12-25T02:38:11.080Z,23.10
2022-12-25T02:41:16.148Z,26.75
2022-12-25T02:44:41.541Z,27.00
2022-12-25T02:48:03.030Z,26.17
2022-12-25T02:51:27.124Z,24.20
2022-12-25T02:54:54.817Z,22.83
2022-12-25T02:58:19.026Z,21.00
2022-12-25T03:01:42.183Z,22.38
2022-12-25T03:05:03.149Z,22.20
2022-12-25T03:08:11.273Z,24.93
2022-12-25T03:11:31.813Z,24.50
2022-12-25T03:14:53.108Z,25.90
2022-12-25T03:17:57.841Z,32.88
2022-12-25T03:21:18.835Z,35.88
2022-12-25T03:24:40.457Z,35.40
2022-12-25T03:27:44.577Z,32.95
2022-12-25T03:31:25.604Z,31.70
2022-12-25T03:35:08.577Z,31.05
2022-12-25T03:38:41.778Z,30.27
2022-12-25T03:42:06.491Z,31.67
2022-12-25T03:45:31.535Z,38.97
2022-12-25T03:48:55.171Z,31.35
2022-12-25T03:52:17.718Z,31.65
2022-12-25T03:55:39.128Z,28.55
2022-12-25T03:59:21.040Z,24.03
2022-12-25T04:02:44.613Z,26.73
2022-12-25T04:06:05.684Z,41.58
2022-12-25T04:09:26.432Z,41.45
2022-12-25T04:12:47.355Z,45.85
2022-12-25T04:16:10.675Z,38.93
2022-12-25T04:19:32.376Z,35.80
2022-12-25T04:22:53.209Z,36.75
2022-12-25T04:26:17.041Z,32.03
2022-12-25T04:29:37.794Z,33.50
2022-12-25T04:32:58.580Z,29.23
2022-12-25T04:36:11.061Z,29.38
2022-12-25T04:39:13.783Z,38.28
2022-12-25T04:42:16.747Z,37.78
2022-12-25T04:45:19.512Z,36.00
2022-12-25T04:48:22.646Z,37.60
2022-12-25T04:51:26.161Z,34.95
2022-12-25T04:54:28.683Z,35.20
2022-12-25T04:57:31.128Z,39.38
2022-12-25T05:00:33.746Z,39.15
2022-12-25T05:03:36.790Z,38.63
2022-12-25T05:06:40.306Z,37.08
2022-12-25T05:09:42.729Z,36.05
2022-12-25T05:12:45.226Z,36.08
2022-12-25T05:15:47.855Z,38.50
2022-12-25T05:18:51.469Z,38.97
2022-12-25T05:21:58.069Z,37.38
2022-12-25T05:25:00.536Z,35.72
2022-12-25T05:28:02.980Z,47.38
2022-12-25T05:31:05.650Z,43.45
2022-12-25T05:34:08.098Z,42.50
2022-12-25T05:37:10.588Z,38.72
2022-12-25T05:40:13.060Z,39.75
2022-12-25T05:43:15.546Z,39.35
2022-12-25T05:46:18.064Z,40.53
2022-12-25T05:49:20.588Z,38.90
2022-12-25T05:52:23.486Z,37.13
2022-12-25T05:55:25.879Z,27.98
2022-12-25T05:58:28.451Z,30.10
2022-12-25T06:01:31.196Z,36.05
2022-12-25T06:04:33.740Z,34.33
2022-12-25T06:07:36.874Z,32.63
2022-12-25T06:10:39.461Z,32.42
2022-12-25T06:13:42.381Z,32.22
2022-12-25T06:16:44.879Z,34.88
2022-12-25T06:19:47.404Z,33.57
2022-12-25T06:22:49.837Z,31.48
2022-12-25T06:25:52.621Z,33.97
2022-12-25T06:28:55.094Z,33.80
2022-12-25T06:31:58.948Z,38.00
2022-12-25T06:35:01.511Z,34.63
2022-12-25T06:38:03.966Z,23.73
2022-12-25T06:41:17.994Z,21.33
2022-12-25T06:44:21.405Z,25.33
2022-12-25T06:47:23.844Z,22.85
2022-12-25T06:50:26.426Z,24.00
2022-12-25T06:53:33.519Z,19.58
2022-12-25T06:56:39.711Z,26.63
2022-12-25T06:59:42.191Z,27.92
2022-12-25T07:02:46.922Z,32.22
2022-12-25T07:05:49.402Z,38.70
2022-12-25T07:08:52.072Z,28.67
2022-12-25T07:11:54.903Z,27.55
2022-12-25T07:14:57.507Z,32.15
2022-12-25T07:17:59.938Z,24.98
2022-12-25T07:21:06.971Z,73.27
2022-12-25T07:24:09.465Z,47.50
2022-12-25T07:27:11.886Z,47.25
2022-12-25T07:30:14.457Z,28.73
2022-12-25T07:33:17.194Z,19.23
2022-12-25T07:36:19.569Z,18.13
2022-12-25T07:39:22.157Z,15.82
2022-12-25T07:42:25.504Z,16.85
2022-12-25T07:45:30.137Z,21.80
2022-12-25T07:48:32.942Z,17.63
2022-12-25T07:51:35.540Z,13.33
2022-12-25T07:54:37.968Z,15.23
2022-12-25T07:57:40.362Z,17.70
2022-12-25T08:00:42.710Z,15.93
2022-12-25T08:03:49.544Z,12.18
2022-12-25T08:06:52.146Z,13.03
2022-12-25T08:09:54.546Z,10.95
2022-12-25T08:12:57.030Z,11.18
2022-12-25T08:16:04.592Z,11.57
2022-12-25T08:19:08.375Z,10.38
2022-12-25T08:22:10.745Z,10.63
2022-12-25T08:25:13.368Z,11.13
2022-12-25T08:28:15.779Z,14.30
2022-12-25T08:31:24.271Z,11.98
2022-12-25T08:34:26.724Z,14.23
2022-12-25T08:37:32.028Z,12.27
2022-12-25T08:40:34.747Z,17.02
2022-12-25T08:43:37.552Z,17.42
2022-12-25T08:46:40.590Z,19.20
2022-12-25T08:49:43.025Z,30.17
2022-12-25T08:52:45.571Z,21.20
2022-12-25T08:55:48.027Z,29.42
2022-12-25T08:58:50.462Z,21.38
2022-12-25T09:01:52.942Z,21.67
2022-12-25T09:04:55.364Z,22.73
2022-12-25T09:07:57.725Z,20.00
2022-12-25T09:11:09.358Z,19.77
2022-12-25T09:14:14.246Z,19.95
2022-12-25T09:17:16.654Z,19.27
2022-12-25T09:20:19.226Z,20.50
2022-12-25T09:23:21.618Z,18.80
2022-12-25T09:26:24.159Z,17.45
2022-12-25T09:29:26.631Z,24.27
2022-12-25T09:32:29.038Z,17.58
2022-12-25T09:35:31.506Z,18.42
2022-12-25T09:38:34.720Z,16.47
2022-12-25T09:41:56.680Z,16.33
2022-12-25T09:45:02.805Z,16.98
2022-12-25T09:48:05.964Z,16.58
2022-12-25T09:51:15.186Z,15.38
2022-12-25T09:54:32.362Z,26.07
2022-12-25T09:57:34.957Z,51.75
2022-12-25T10:01:18.088Z,21.63
2022-12-25T10:04:40.540Z,28.10
2022-12-25T10:07:45.281Z,27.15
2022-12-25T10:10:56.667Z,34.73
2022-12-25T10:14:01.668Z,24.90
2022-12-25T10:17:16.107Z,29.58
2022-12-25T10:20:50.943Z,19.55
2022-12-25T10:23:59.128Z,21.38
2022-12-25T10:27:04.525Z,27.13
2022-12-25T10:30:19.142Z,22.63
2022-12-25T10:33:21.747Z,23.42
2022-12-25T10:36:26.952Z,21.27
2022-12-25T10:39:29.364Z,41.05
2022-12-25T10:42:42.586Z,39.87
2022-12-25T10:45:49.417Z,29.75
2022-12-25T10:48:57.392Z,45.47
2022-12-25T10:52:00.314Z,31.83
2022-12-25T10:55:13.369Z,19.77
2022-12-25T10:58:19.828Z,16.13
2022-12-25T11:01:27.890Z,13.52
2022-12-25T11:04:33.520Z,14.38
2022-12-25T11:07:46.836Z,16.38
2022-12-25T11:11:06.181Z,17.75
2022-12-25T11:14:17.100Z,14.20
2022-12-25T11:17:22.214Z,17.15
2022-12-25T11:20:25.626Z,24.23
2022-12-25T11:23:29.651Z,21.20
2022-12-25T11:26:37.375Z,18.90
2022-12-25T11:30:04.331Z,16.00
2022-12-25T11:33:11.043Z,21.80
2022-12-25T11:36:20.593Z,31.25
2022-12-25T11:39:27.439Z,26.80
2022-12-25T11:42:34.312Z,22.45
2022-12-25T11:45:44.134Z,19.90
2022-12-25T11:48:56.219Z,16.05
2022-12-25T11:51:58.771Z,11.45
2022-12-25T11:55:07.940Z,13.25
2022-12-25T11:58:25.531Z,13.20
2022-12-25T12:01:37.071Z,14.83
2022-12-25T12:04:43.584Z,14.18
2022-12-25T12:07:53.844Z,17.25
2022-12-25T12:11:24.290Z,16.35
2022-12-25T12:14:29.321Z,16.38
2022-12-25T12:17:32.186Z,18.23
2022-12-25T12:20:35.801Z,21.85
2022-12-25T12:24:09.743Z,25.25
2022-12-25T12:27:14.979Z,24.73
2022-12-25T12:30:29.546Z,19.00
2022-12-25T12:33:44.340Z,17.60
2022-12-25T12:36:46.806Z,25.40
2022-12-25T12:39:53.572Z,22.30
2022-12-25T12:42:56.377Z,28.50
2022-12-25T12:46:04.511Z,20.17
2022-12-25T12:49:27.993Z,36.47
2022-12-25T12:52:33.818Z,41.67
2022-12-25T12:55:36.359Z,34.28
2022-12-25T12:58:45.333Z,34.55
2022-12-25T13:02:25.322Z,32.80
2022-12-25T13:05:41.313Z,39.83
2022-12-25T13:09:07.481Z,27.58
2022-12-25T13:12:12.135Z,18.98
2022-12-25T13:15:15.076Z,21.08
2022-12-25T13:18:17.998Z,22.95
2022-12-25T13:21:26.293Z,23.73
2022-12-25T13:24:33.298Z,26.80
2022-12-25T13:27:35.853Z,19.25
2022-12-25T13:30:38.240Z,21.17
2022-12-25T13:33:44.837Z,22.48
2022-12-25T13:36:48.403Z,19.50
2022-12-25T13:39:51.827Z,18.67
2022-12-25T13:42:59.032Z,16.45
2022-12-25T13:46:01.585Z,19.27
2022-12-25T13:49:13.297Z,19.20
2022-12-25T13:52:22.161Z,15.67
2022-12-25T13:55:26.486Z,18.77
2022-12-25T13:58:35.020Z,28.67
2022-12-25T14:01:42.700Z,21.17
2022-12-25T14:04:45.353Z,29.20
2022-12-25T14:07:54.975Z,20.80
2022-12-25T14:10:58.319Z,16.30
2022-12-25T14:14:04.294Z,22.67
2022-12-25T14:17:06.857Z,26.48
2022-12-25T14:20:28.101Z,24.70
2022-12-25T14:23:45.116Z,26.30
2022-12-25T14:26:47.739Z,21.15
2022-12-25T14:29:52.439Z,17.50
2022-12-25T14:32:55.983Z,19.23
2022-12-25T14:35:59.030Z,19.40
2022-12-25T14:39:06.914Z,18.13
2022-12-25T14:42:41.829Z,20.95
2022-12-25T14:46:00.556Z,14.55
2022-12-25T14:49:05.218Z,11.18
2022-12-25T14:52:24.904Z,19.58
2022-12-25T14:55:29.017Z,27.40
2022-12-25T14:58:34.898Z,31.20
2022-12-25T15:01:40.270Z,25.35
2022-12-25T15:04:44.092Z,51.28
2022-12-25T15:07:46.592Z,47.90
2022-12-25T15:11:05.447Z,30.73
2022-12-25T15:14:07.952Z,53.25
2022-12-25T15:17:26.734Z,42.30
2022-12-25T15:20:31.853Z,19.77
2022-12-25T15:23:34.334Z,24.33
2022-12-25T15:26:36.751Z,33.13
2022-12-25T15:30:08.663Z,41.13
2022-12-25T15:33:01.767Z,39.95
2022-12-25T15:36:04.314Z,39.97
2022-12-25T15:39:07.182Z,37.35
2022-12-25T15:42:22.940Z,34.67
2022-12-25T15:45:28.172Z,32.85
2022-12-25T15:48:31.813Z,33.45
2022-12-25T15:51:34.314Z,31.23
2022-12-25T15:54:37.292Z,31.23
2022-12-25T15:57:44.322Z,31.17
2022-12-25T16:00:46.851Z,32.13
2022-12-25T16:03:49.392Z,36.78
2022-12-25T16:06:52.182Z,31.33
2022-12-25T16:09:54.666Z,27.42
2022-12-25T16:12:57.100Z,29.03
2022-12-25T16:15:59.749Z,18.98
2022-12-25T16:19:02.193Z,20.08
2022-12-25T16:22:14.647Z,19.00
2022-12-25T16:25:19.140Z,21.55
2022-12-25T16:28:21.605Z,18.47
2022-12-25T16:31:24.061Z,18.77
2022-12-25T16:34:26.496Z,26.77
2022-12-25T16:37:29.221Z,28.05
2022-12-25T16:40:31.964Z,21.95
2022-12-25T16:43:35.210Z,20.27
2022-12-25T16:46:40.296Z,19.27
2022-12-25T16:49:42.996Z,32.15
2022-12-25T16:52:45.371Z,23.52
2022-12-25T16:55:47.794Z,20.65
2022-12-25T16:58:50.203Z,19.80
2022-12-25T17:01:52.665Z,18.42
2022-12-25T17:04:55.097Z,17.52
2022-12-25T17:07:59.433Z,15.07
2022-12-25T17:11:04.633Z,16.15
2022-12-25T17:14:07.290Z,15.17
2022-12-25T17:17:09.721Z,15.00
2022-12-25T17:20:12.599Z,16.25
2022-12-25T17:23:14.973Z,18.08
2022-12-25T17:26:17.512Z,20.45
2022-12-25T17:29:22.333Z,20.27
2022-12-25T17:32:25.260Z,32.10
2022-12-25T17:35:28.203Z,35.67
2022-12-25T17:38:31.507Z,26.00
2022-12-25T17:41:34.528Z,35.35
2022-12-25T17:44:36.935Z,32.27
2022-12-25T17:47:39.334Z,43.17
2022-12-25T17:50:41.877Z,48.90
2022-12-25T17:53:46.243Z,84.65
2022-12-25T17:56:49.435Z,67.18
2022-12-25T17:59:52.112Z,58.90
2022-12-25T18:02:54.668Z,48.20
2022-12-25T18:06:00.277Z,42.35
2022-12-25T18:09:04.825Z,40.50
2022-12-25T18:12:07.344Z,38.15
2022-12-25T18:15:11.497Z,33.33
2022-12-25T18:18:14.135Z,40.60
2022-12-25T18:21:16.594Z,37.30
2022-12-25T18:24:18.945Z,30.88
2022-12-25T18:27:21.345Z,32.85
2022-12-25T18:30:23.763Z,33.00
2022-12-25T18:33:26.559Z,31.77
2022-12-25T18:36:30.202Z,41.42
2022-12-25T18:39:33.415Z,43.53
2022-12-25T18:42:39.572Z,35.30
2022-12-25T18:45:42.538Z,31.97
2022-12-25T18:48:45.188Z,30.85
2022-12-25T18:51:48.789Z,28.33
2022-12-25T18:54:51.195Z,25.88
2022-12-25T18:57:53.827Z,24.83
2022-12-25T19:00:56.422Z,23.33
2022-12-25T19:04:04.410Z,26.50
2022-12-25T19:07:08.159Z,26.17
2022-12-25T19:10:10.732Z,27.42
2022-12-25T19:13:13.359Z,31.10
2022-12-25T19:16:16.115Z,28.73
2022-12-25T19:19:21.775Z,35.05
2022-12-25T19:22:24.243Z,39.00
2022-12-25T19:25:27.831Z,36.38
2022-12-25T19:28:30.361Z,31.42
2022-12-25T19:31:33.228Z,33.23
2022-12-25T19:34:36.076Z,48.35
2022-12-25T19:37:38.502Z,53.53
2022-12-25T19:40:41.250Z,37.55
2022-12-25T19:43:45.673Z,94.65
2022-12-25T19:46:49.534Z,43.73
2022-12-25T19:49:53.425Z,43.85
2022-12-25T19:52:56.809Z,52.38
2022-12-25T19:56:02.905Z,43.60
2022-12-25T19:59:05.346Z,35.25
2022-12-25T20:02:09.512Z,30.07
2022-12-25T20:05:12.031Z,27.02
2022-12-25T20:08:14.682Z,32.65
2022-12-25T20:11:17.349Z,29.27
2022-12-25T20:14:19.840Z,30.40
2022-12-25T20:17:22.238Z,31.97
2022-12-25T20:20:24.661Z,39.85
2022-12-25T20:23:27.970Z,32.60
2022-12-25T20:26:31.166Z,35.40
2022-12-25T20:29:41.637Z,37.53
2022-12-25T20:32:50.063Z,34.07
2022-12-25T20:35:53.207Z,30.25
2022-12-25T20:38:55.813Z,34.10
2022-12-25T20:41:58.371Z,36.45
2022-12-25T20:45:00.915Z,28.77
2022-12-25T20:48:05.122Z,35.33
2022-12-25T20:51:13.736Z,31.73
2022-12-25T20:54:16.384Z,24.40
2022-12-25T20:57:18.893Z,23.13
2022-12-25T21:00:22.305Z,22.83
2022-12-25T21:03:25.043Z,23.10
2022-12-25T21:06:27.580Z,27.17
2022-12-25T21:09:30.053Z,16.05
2022-12-25T21:12:32.449Z,17.77
2022-12-25T21:15:34.838Z,16.73
2022-12-25T21:18:37.512Z,15.13
2022-12-25T21:21:42.835Z,14.05
2022-12-25T21:24:45.365Z,14.32
2022-12-25T21:27:47.772Z,15.90
2022-12-25T21:30:50.213Z,17.05
2022-12-25T21:33:54.055Z,13.40
2022-12-25T21:36:56.525Z,17.25
2022-12-25T21:39:59.587Z,17.48
2022-12-25T21:43:02.215Z,15.85
2022-12-25T21:46:07.095Z,16.25
2022-12-25T21:49:09.777Z,17.13
2022-12-25T21:52:12.300Z,18.83
2022-12-25T21:55:14.747Z,18.30
2022-12-25T21:58:17.233Z,18.38
2022-12-25T22:01:19.854Z,27.25
2022-12-25T22:04:23.332Z,20.83
2022-12-25T22:07:25.692Z,18.98
2022-12-25T22:10:28.290Z,25.27
2022-12-25T22:13:49.311Z,38.63
2022-12-25T22:17:10.291Z,27.88
2022-12-25T22:20:16.387Z,16.90
2022-12-25T22:23:19.528Z,14.50
2022-12-25T22:26:21.905Z,14.52
2022-12-25T22:29:25.784Z,15.05
2022-12-25T22:32:28.627Z,15.52
2022-12-25T22:35:31.109Z,15.50
2022-12-25T22:38:33.750Z,15.75
2022-12-25T22:41:36.190Z,16.10
2022-12-25T22:44:38.670Z,15.75
2022-12-25T22:47:41.614Z,17.15
2022-12-25T22:50:44.095Z,16.17
2022-12-25T22:53:46.544Z,16.88
2022-12-25T22:56:51.186Z,16.42
2022-12-25T22:59:53.605Z,16.02
2022-12-25T23:02:56.260Z,17.25
2022-12-25T23:05:58.818Z,18.67
2022-12-25T23:09:01.895Z,17.95
2022-12-25T23:12:04.733Z,18.38
2022-12-25T23:15:07.671Z,19.02
2022-12-25T23:18:28.547Z,15.82
2022-12-25T23:21:49.932Z,17.20
2022-12-25T23:25:11.016Z,17.27
2022-12-25T23:28:13.466Z,17.45
2022-12-25T23:31:20.928Z,17.55
2022-12-25T23:34:23.914Z,17.20
2022-12-25T23:37:26.269Z,16.77
2022-12-25T23:40:30.151Z,15.73
2022-12-25T23:43:34.128Z,14.82
2022-12-25T23:46:36.883Z,15.18
2022-12-25T23:49:39.779Z,18.20
2022-12-25T23:52:42.220Z,16.90
2022-12-25T23:55:48.693Z,16.85
2022-12-25T23:58:54.194Z,15.65
